sensor_id;sensor_type;location;lat;lon;timestamp;P1;durP1;ratioP1;P2;durP2;ratioP2
38853;SDS011;24606;51.992;4.198;2024-03-29T00:03:45;7.43;;;1.27;;
38853;SDS011;24606;51.992;4.198;2024-03-29T00:08:47;11.85;;;1.20;;
38853;SDS011;24606;51.992;4.198;2024-03-29T00:13:48;7.30;;;1.50;;
38853;SDS011;24606;51.992;4.198;2024-03-29T00:18:50;3.17;;;0.93;;
38853;SDS011;24606;51.992;4.198;2024-03-29T00:23:53;9.65;;;1.85;;
38853;SDS011;24606;51.992;4.198;2024-03-29T00:28:54;10.15;;;1.60;;
38853;SDS011;24606;51.992;4.198;2024-03-29T00:33:57;9.88;;;1.30;;
38853;SDS011;24606;51.992;4.198;2024-03-29T00:38:58;4.18;;;1.10;;
38853;SDS011;24606;51.992;4.198;2024-03-29T00:43:59;6.13;;;1.40;;
38853;SDS011;24606;51.992;4.198;2024-03-29T00:49:02;7.32;;;1.30;;
38853;SDS011;24606;51.992;4.198;2024-03-29T00:54:03;8.98;;;1.20;;
38853;SDS011;24606;51.992;4.198;2024-03-29T00:59:04;5.90;;;1.52;;
38853;SDS011;24606;51.992;4.198;2024-03-29T01:04:07;5.90;;;1.10;;
38853;SDS011;24606;51.992;4.198;2024-03-29T01:09:08;6.82;;;1.30;;
38853;SDS011;24606;51.992;4.198;2024-03-29T01:14:10;9.98;;;1.35;;
38853;SDS011;24606;51.992;4.198;2024-03-29T01:19:12;6.22;;;1.98;;
38853;SDS011;24606;51.992;4.198;2024-03-29T01:24:13;7.97;;;1.48;;
38853;SDS011;24606;51.992;4.198;2024-03-29T01:29:14;10.73;;;1.83;;
38853;SDS011;24606;51.992;4.198;2024-03-29T01:34:17;4.72;;;1.27;;
38853;SDS011;24606;51.992;4.198;2024-03-29T01:39:18;7.93;;;1.83;;
38853;SDS011;24606;51.992;4.198;2024-03-29T01:44:19;8.77;;;1.40;;
38853;SDS011;24606;51.992;4.198;2024-03-29T01:49:23;9.70;;;1.33;;
38853;SDS011;24606;51.992;4.198;2024-03-29T01:54:26;8.77;;;1.33;;
38853;SDS011;24606;51.992;4.198;2024-03-29T02:04:32;13.80;;;1.63;;
38853;SDS011;24606;51.992;4.198;2024-03-29T02:09:34;9.00;;;1.60;;
38853;SDS011;24606;51.992;4.198;2024-03-29T02:14:36;13.43;;;1.67;;
38853;SDS011;24606;51.992;4.198;2024-03-29T02:19:41;4.50;;;1.20;;
38853;SDS011;24606;51.992;4.198;2024-03-29T02:24:44;7.25;;;1.30;;
38853;SDS011;24606;51.992;4.198;2024-03-29T02:29:47;7.90;;;1.02;;
38853;SDS011;24606;51.992;4.198;2024-03-29T02:34:49;6.43;;;1.33;;
38853;SDS011;24606;51.992;4.198;2024-03-29T02:39:52;5.00;;;0.90;;
38853;SDS011;24606;51.992;4.198;2024-03-29T02:44:54;7.22;;;1.20;;
38853;SDS011;24606;51.992;4.198;2024-03-29T02:49:56;4.88;;;0.82;;
38853;SDS011;24606;51.992;4.198;2024-03-29T02:55:00;7.93;;;1.27;;
38853;SDS011;24606;51.992;4.198;2024-03-29T03:00:02;4.30;;;0.95;;
38853;SDS011;24606;51.992;4.198;2024-03-29T03:10:12;5.30;;;1.35;;
38853;SDS011;24606;51.992;4.198;2024-03-29T03:15:32;7.47;;;1.77;;
38853;SDS011;24606;51.992;4.198;2024-03-29T03:20:34;12.30;;;1.10;;
38853;SDS011;24606;51.992;4.198;2024-03-29T03:25:39;3.72;;;0.80;;
38853;SDS011;24606;51.992;4.198;2024-03-29T03:30:41;5.25;;;1.02;;
38853;SDS011;24606;51.992;4.198;2024-03-29T03:35:43;9.23;;;1.15;;
38853;SDS011;24606;51.992;4.198;2024-03-29T03:40:47;2.47;;;0.90;;
38853;SDS011;24606;51.992;4.198;2024-03-29T03:45:49;9.13;;;1.63;;
38853;SDS011;24606;51.992;4.198;2024-03-29T03:50:51;3.00;;;0.63;;
38853;SDS011;24606;51.992;4.198;2024-03-29T03:55:54;5.23;;;1.53;;
38853;SDS011;24606;51.992;4.198;2024-03-29T04:00:56;4.55;;;0.80;;
38853;SDS011;24606;51.992;4.198;2024-03-29T04:06:04;2.95;;;1.35;;
38853;SDS011;24606;51.992;4.198;2024-03-29T04:11:08;2.33;;;0.60;;
38853;SDS011;24606;51.992;4.198;2024-03-29T04:16:11;4.50;;;0.93;;
38853;SDS011;24606;51.992;4.198;2024-03-29T04:21:13;2.65;;;0.98;;
38853;SDS011;24606;51.992;4.198;2024-03-29T04:26:16;5.23;;;0.93;;
38853;SDS011;24606;51.992;4.198;2024-03-29T04:31:18;5.03;;;0.57;;
38853;SDS011;24606;51.992;4.198;2024-03-29T04:36:20;0.60;;;0.53;;
38853;SDS011;24606;51.992;4.198;2024-03-29T04:41:23;2.90;;;0.60;;
38853;SDS011;24606;51.992;4.198;2024-03-29T04:46:25;1.23;;;0.40;;
38853;SDS011;24606;51.992;4.198;2024-03-29T04:51:27;1.40;;;0.20;;
38853;SDS011;24606;51.992;4.198;2024-03-29T04:56:31;1.97;;;0.40;;
38853;SDS011;24606;51.992;4.198;2024-03-29T05:01:33;1.10;;;0.40;;
38853;SDS011;24606;51.992;4.198;2024-03-29T05:06:35;3.50;;;0.38;;
38853;SDS011;24606;51.992;4.198;2024-03-29T05:11:39;1.03;;;0.40;;
38853;SDS011;24606;51.992;4.198;2024-03-29T05:16:41;2.20;;;0.47;;
38853;SDS011;24606;51.992;4.198;2024-03-29T05:21:43;9.82;;;1.05;;
38853;SDS011;24606;51.992;4.198;2024-03-29T05:26:46;0.52;;;0.20;;
38853;SDS011;24606;51.992;4.198;2024-03-29T05:31:48;3.78;;;0.50;;
38853;SDS011;24606;51.992;4.198;2024-03-29T05:36:50;1.53;;;0.57;;
38853;SDS011;24606;51.992;4.198;2024-03-29T05:41:54;0.35;;;0.30;;
38853;SDS011;24606;51.992;4.198;2024-03-29T05:46:56;1.33;;;0.50;;
38853;SDS011;24606;51.992;4.198;2024-03-29T05:51:58;1.92;;;0.40;;
38853;SDS011;24606;51.992;4.198;2024-03-29T05:57:02;2.03;;;0.40;;
38853;SDS011;24606;51.992;4.198;2024-03-29T06:02:04;2.03;;;0.50;;
38853;SDS011;24606;51.992;4.198;2024-03-29T06:07:06;3.63;;;0.60;;
38853;SDS011;24606;51.992;4.198;2024-03-29T06:12:10;1.80;;;0.90;;
38853;SDS011;24606;51.992;4.198;2024-03-29T06:17:12;3.10;;;0.80;;
38853;SDS011;24606;51.992;4.198;2024-03-29T06:22:26;3.72;;;0.80;;
38853;SDS011;24606;51.992;4.198;2024-03-29T06:27:31;2.05;;;0.80;;
38853;SDS011;24606;51.992;4.198;2024-03-29T06:32:33;1.95;;;0.45;;
38853;SDS011;24606;51.992;4.198;2024-03-29T06:37:36;2.55;;;0.88;;
38853;SDS011;24606;51.992;4.198;2024-03-29T06:42:40;4.43;;;0.70;;
38853;SDS011;24606;51.992;4.198;2024-03-29T06:47:42;2.53;;;1.15;;
38853;SDS011;24606;51.992;4.198;2024-03-29T06:52:44;2.13;;;0.73;;
38853;SDS011;24606;51.992;4.198;2024-03-29T06:57:47;3.70;;;1.05;;
38853;SDS011;24606;51.992;4.198;2024-03-29T07:02:49;2.97;;;1.23;;
38853;SDS011;24606;51.992;4.198;2024-03-29T07:07:51;3.00;;;1.10;;
38853;SDS011;24606;51.992;4.198;2024-03-29T07:12:55;2.33;;;1.05;;
38853;SDS011;24606;51.992;4.198;2024-03-29T07:17:57;3.03;;;1.10;;
38853;SDS011;24606;51.992;4.198;2024-03-29T07:22:59;4.68;;;0.93;;
38853;SDS011;24606;51.992;4.198;2024-03-29T07:28:03;3.38;;;0.77;;
38853;SDS011;24606;51.992;4.198;2024-03-29T07:33:05;3.72;;;0.85;;
38853;SDS011;24606;51.992;4.198;2024-03-29T07:38:09;2.15;;;0.95;;
38853;SDS011;24606;51.992;4.198;2024-03-29T07:43:13;2.07;;;1.07;;
38853;SDS011;24606;51.992;4.198;2024-03-29T07:48:15;1.30;;;0.73;;
38853;SDS011;24606;51.992;4.198;2024-03-29T07:53:18;4.65;;;0.70;;
38853;SDS011;24606;51.992;4.198;2024-03-29T07:58:21;2.88;;;0.80;;
38853;SDS011;24606;51.992;4.198;2024-03-29T08:03:24;1.52;;;0.70;;
38853;SDS011;24606;51.992;4.198;2024-03-29T08:08:26;1.13;;;0.43;;
38853;SDS011;24606;51.992;4.198;2024-03-29T08:13:30;4.13;;;0.32;;
38853;SDS011;24606;51.992;4.198;2024-03-29T08:18:32;2.15;;;0.40;;
38853;SDS011;24606;51.992;4.198;2024-03-29T08:33:41;1.58;;;0.63;;
38853;SDS011;24606;51.992;4.198;2024-03-29T08:38:43;3.45;;;0.85;;
38853;SDS011;24606;51.992;4.198;2024-03-29T08:43:48;2.17;;;0.40;;
38853;SDS011;24606;51.992;4.198;2024-03-29T08:48:50;2.65;;;1.23;;
38853;SDS011;24606;51.992;4.198;2024-03-29T08:53:52;2.17;;;1.10;;
38853;SDS011;24606;51.992;4.198;2024-03-29T08:58:55;1.70;;;0.80;;
38853;SDS011;24606;51.992;4.198;2024-03-29T09:03:59;1.95;;;0.90;;
38853;SDS011;24606;51.992;4.198;2024-03-29T09:09:01;3.50;;;0.93;;
38853;SDS011;24606;51.992;4.198;2024-03-29T09:14:04;3.78;;;1.05;;
38853;SDS011;24606;51.992;4.198;2024-03-29T09:19:09;2.15;;;1.20;;
38853;SDS011;24606;51.992;4.198;2024-03-29T09:24:11;3.67;;;1.40;;
38853;SDS011;24606;51.992;4.198;2024-03-29T09:29:15;2.00;;;1.67;;
38853;SDS011;24606;51.992;4.198;2024-03-29T09:34:18;1.63;;;0.95;;
38853;SDS011;24606;51.992;4.198;2024-03-29T09:39:20;0.93;;;0.80;;
38853;SDS011;24606;51.992;4.198;2024-03-29T09:44:23;1.97;;;0.80;;
38853;SDS011;24606;51.992;4.198;2024-03-29T09:49:31;2.50;;;1.58;;
38853;SDS011;24606;51.992;4.198;2024-03-29T09:59:37;2.03;;;1.17;;
38853;SDS011;24606;51.992;4.198;2024-03-29T10:04:39;6.93;;;1.42;;
38853;SDS011;24606;51.992;4.198;2024-03-29T10:09:43;2.00;;;1.10;;
38853;SDS011;24606;51.992;4.198;2024-03-29T10:14:47;5.15;;;1.92;;
38853;SDS011;24606;51.992;4.198;2024-03-29T10:19:53;2.45;;;1.70;;
38853;SDS011;24606;51.992;4.198;2024-03-29T10:24:56;2.65;;;1.35;;
38853;SDS011;24606;51.992;4.198;2024-03-29T10:30:00;3.00;;;1.90;;
38853;SDS011;24606;51.992;4.198;2024-03-29T10:35:03;3.28;;;1.80;;
38853;SDS011;24606;51.992;4.198;2024-03-29T10:40:08;3.15;;;1.52;;
38853;SDS011;24606;51.992;4.198;2024-03-29T10:45:12;2.60;;;1.27;;
38853;SDS011;24606;51.992;4.198;2024-03-29T10:50:17;2.60;;;1.92;;
38853;SDS011;24606;51.992;4.198;2024-03-29T10:55:22;3.70;;;2.20;;
38853;SDS011;24606;51.992;4.198;2024-03-29T11:00:26;3.40;;;2.15;;
38853;SDS011;24606;51.992;4.198;2024-03-29T11:05:30;3.15;;;1.40;;
38853;SDS011;24606;51.992;4.198;2024-03-29T11:10:35;2.15;;;1.20;;
38853;SDS011;24606;51.992;4.198;2024-03-29T11:15:44;5.07;;;2.20;;
38853;SDS011;24606;51.992;4.198;2024-03-29T11:20:48;5.00;;;2.42;;
38853;SDS011;24606;51.992;4.198;2024-03-29T11:30:58;2.08;;;1.65;;
38853;SDS011;24606;51.992;4.198;2024-03-29T11:36:06;2.33;;;1.13;;
38853;SDS011;24606;51.992;4.198;2024-03-29T11:41:12;4.40;;;1.45;;
38853;SDS011;24606;51.992;4.198;2024-03-29T11:46:18;2.60;;;1.40;;
38853;SDS011;24606;51.992;4.198;2024-03-29T11:51:21;2.08;;;1.30;;
38853;SDS011;24606;51.992;4.198;2024-03-29T11:56:24;5.43;;;1.67;;
38853;SDS011;24606;51.992;4.198;2024-03-29T12:01:28;1.65;;;1.08;;
38853;SDS011;24606;51.992;4.198;2024-03-29T12:06:32;2.28;;;1.10;;
38853;SDS011;24606;51.992;4.198;2024-03-29T12:11:34;6.80;;;1.40;;
38853;SDS011;24606;51.992;4.198;2024-03-29T12:21:45;3.53;;;1.50;;
38853;SDS011;24606;51.992;4.198;2024-03-29T12:26:48;5.45;;;1.02;;
38853;SDS011;24606;51.992;4.198;2024-03-29T12:31:58;6.30;;;1.63;;
38853;SDS011;24606;51.992;4.198;2024-03-29T12:37:01;5.20;;;1.00;;
38853;SDS011;24606;51.992;4.198;2024-03-29T12:42:04;6.03;;;1.52;;
38853;SDS011;24606;51.992;4.198;2024-03-29T12:47:07;3.10;;;1.85;;
38853;SDS011;24606;51.992;4.198;2024-03-29T12:52:09;3.00;;;1.17;;
38853;SDS011;24606;51.992;4.198;2024-03-29T12:57:12;6.95;;;1.45;;
38853;SDS011;24606;51.992;4.198;2024-03-29T13:02:15;6.85;;;1.83;;
38853;SDS011;24606;51.992;4.198;2024-03-29T13:07:17;3.95;;;1.58;;
38853;SDS011;24606;51.992;4.198;2024-03-29T13:12:20;11.20;;;2.20;;
38853;SDS011;24606;51.992;4.198;2024-03-29T13:17:24;4.30;;;1.80;;
38853;SDS011;24606;51.992;4.198;2024-03-29T13:22:27;4.70;;;1.52;;
38853;SDS011;24606;51.992;4.198;2024-03-29T13:27:29;2.33;;;1.13;;
38853;SDS011;24606;51.992;4.198;2024-03-29T13:32:32;1.75;;;0.80;;
38853;SDS011;24606;51.992;4.198;2024-03-29T13:37:35;3.97;;;1.50;;
38853;SDS011;24606;51.992;4.198;2024-03-29T13:42:38;5.78;;;1.27;;
38853;SDS011;24606;51.992;4.198;2024-03-29T13:47:42;4.90;;;1.30;;
38853;SDS011;24606;51.992;4.198;2024-03-29T13:52:46;5.47;;;1.20;;
38853;SDS011;24606;51.992;4.198;2024-03-29T13:57:48;4.75;;;1.20;;
38853;SDS011;24606;51.992;4.198;2024-03-29T14:02:51;2.93;;;1.13;;
38853;SDS011;24606;51.992;4.198;2024-03-29T14:07:54;5.22;;;1.50;;
38853;SDS011;24606;51.992;4.198;2024-03-29T14:12:55;7.90;;;1.27;;
38853;SDS011;24606;51.992;4.198;2024-03-29T14:17:59;4.20;;;0.90;;
38853;SDS011;24606;51.992;4.198;2024-03-29T14:23:01;3.40;;;0.95;;
38853;SDS011;24606;51.992;4.198;2024-03-29T14:28:06;4.95;;;1.70;;
38853;SDS011;24606;51.992;4.198;2024-03-29T14:33:10;3.33;;;1.33;;
38853;SDS011;24606;51.992;4.198;2024-03-29T14:38:12;5.43;;;1.30;;
38853;SDS011;24606;51.992;4.198;2024-03-29T14:43:15;4.15;;;1.13;;
38853;SDS011;24606;51.992;4.198;2024-03-29T14:48:20;1.08;;;0.77;;
38853;SDS011;24606;51.992;4.198;2024-03-29T14:53:22;4.05;;;0.90;;
38853;SDS011;24606;51.992;4.198;2024-03-29T14:58:24;1.42;;;0.70;;
38853;SDS011;24606;51.992;4.198;2024-03-29T15:03:27;5.55;;;1.00;;
38853;SDS011;24606;51.992;4.198;2024-03-29T15:08:29;2.20;;;0.60;;
38853;SDS011;24606;51.992;4.198;2024-03-29T15:13:31;2.50;;;0.80;;
38853;SDS011;24606;51.992;4.198;2024-03-29T15:18:35;3.92;;;0.73;;
38853;SDS011;24606;51.992;4.198;2024-03-29T15:23:38;1.65;;;0.80;;
38853;SDS011;24606;51.992;4.198;2024-03-29T15:28:41;0.73;;;0.70;;
38853;SDS011;24606;51.992;4.198;2024-03-29T15:34:03;0.50;;;0.50;;
38853;SDS011;24606;51.992;4.198;2024-03-29T15:39:05;0.95;;;0.60;;
38853;SDS011;24606;51.992;4.198;2024-03-29T15:44:09;0.98;;;0.60;;
38853;SDS011;24606;51.992;4.198;2024-03-29T15:49:13;2.92;;;0.95;;
38853;SDS011;24606;51.992;4.198;2024-03-29T15:54:16;4.60;;;0.68;;
38853;SDS011;24606;51.992;4.198;2024-03-29T15:59:20;3.25;;;0.88;;
38853;SDS011;24606;51.992;4.198;2024-03-29T16:04:24;10.95;;;1.00;;
38853;SDS011;24606;51.992;4.198;2024-03-29T16:09:26;4.90;;;0.60;;
38853;SDS011;24606;51.992;4.198;2024-03-29T16:14:28;1.17;;;0.60;;
38853;SDS011;24606;51.992;4.198;2024-03-29T16:19:32;0.63;;;0.40;;
38853;SDS011;24606;51.992;4.198;2024-03-29T16:24:35;2.05;;;0.85;;
38853;SDS011;24606;51.992;4.198;2024-03-29T16:29:36;2.30;;;0.70;;
38853;SDS011;24606;51.992;4.198;2024-03-29T16:34:46;1.85;;;0.95;;
38853;SDS011;24606;51.992;4.198;2024-03-29T16:39:50;1.83;;;0.68;;
38853;SDS011;24606;51.992;4.198;2024-03-29T16:44:55;1.95;;;0.65;;
38853;SDS011;24606;51.992;4.198;2024-03-29T16:49:58;1.65;;;0.90;;
38853;SDS011;24606;51.992;4.198;2024-03-29T16:55:01;2.22;;;0.70;;
38853;SDS011;24606;51.992;4.198;2024-03-29T17:00:03;2.90;;;0.70;;
38853;SDS011;24606;51.992;4.198;2024-03-29T17:05:12;3.08;;;1.35;;
38853;SDS011;24606;51.992;4.198;2024-03-29T17:10:14;33.25;;;6.68;;
38853;SDS011;24606;51.992;4.198;2024-03-29T17:20:19;28.20;;;5.73;;
38853;SDS011;24606;51.992;4.198;2024-03-29T17:25:22;33.28;;;8.20;;
38853;SDS011;24606;51.992;4.198;2024-03-29T17:30:24;11.15;;;2.80;;
38853;SDS011;24606;51.992;4.198;2024-03-29T17:35:27;11.93;;;3.08;;
38853;SDS011;24606;51.992;4.198;2024-03-29T17:40:30;6.18;;;2.10;;
38853;SDS011;24606;51.992;4.198;2024-03-29T17:45:33;18.88;;;5.82;;
38853;SDS011;24606;51.992;4.198;2024-03-29T17:50:37;40.38;;;9.38;;
38853;SDS011;24606;51.992;4.198;2024-03-29T17:55:39;21.70;;;6.25;;
38853;SDS011;24606;51.992;4.198;2024-03-29T18:00:41;7.78;;;1.90;;
38853;SDS011;24606;51.992;4.198;2024-03-29T18:05:46;8.18;;;2.28;;
38853;SDS011;24606;51.992;4.198;2024-03-29T18:10:48;13.85;;;3.88;;
38853;SDS011;24606;51.992;4.198;2024-03-29T18:15:50;12.88;;;2.55;;
38853;SDS011;24606;51.992;4.198;2024-03-29T18:20:54;3.60;;;1.38;;
38853;SDS011;24606;51.992;4.198;2024-03-29T18:25:56;9.65;;;3.22;;
38853;SDS011;24606;51.992;4.198;2024-03-29T18:30:58;10.18;;;2.08;;
38853;SDS011;24606;51.992;4.198;2024-03-29T18:36:04;4.43;;;1.52;;
38853;SDS011;24606;51.992;4.198;2024-03-29T18:41:07;5.93;;;2.20;;
38853;SDS011;24606;51.992;4.198;2024-03-29T18:51:13;2.80;;;1.17;;
38853;SDS011;24606;51.992;4.198;2024-03-29T18:56:16;4.70;;;1.70;;
38853;SDS011;24606;51.992;4.198;2024-03-29T19:01:19;7.18;;;1.83;;
38853;SDS011;24606;51.992;4.198;2024-03-29T19:06:22;5.53;;;1.98;;
38853;SDS011;24606;51.992;4.198;2024-03-29T19:11:26;3.40;;;1.25;;
38853;SDS011;24606;51.992;4.198;2024-03-29T19:16:28;6.07;;;1.50;;
38853;SDS011;24606;51.992;4.198;2024-03-29T19:21:33;4.13;;;1.98;;
38853;SDS011;24606;51.992;4.198;2024-03-29T19:26:35;6.22;;;2.03;;
38853;SDS011;24606;51.992;4.198;2024-03-29T19:36:40;3.92;;;1.45;;
38853;SDS011;24606;51.992;4.198;2024-03-29T19:41:52;4.25;;;1.27;;
38853;SDS011;24606;51.992;4.198;2024-03-29T19:46:54;4.68;;;1.10;;
38853;SDS011;24606;51.992;4.198;2024-03-29T19:51:57;3.88;;;1.98;;
38853;SDS011;24606;51.992;4.198;2024-03-29T19:56:59;4.43;;;1.95;;
38853;SDS011;24606;51.992;4.198;2024-03-29T20:02:01;3.42;;;1.23;;
38853;SDS011;24606;51.992;4.198;2024-03-29T20:07:05;3.30;;;1.17;;
38853;SDS011;24606;51.992;4.198;2024-03-29T20:12:07;2.88;;;1.08;;
38853;SDS011;24606;51.992;4.198;2024-03-29T20:17:09;1.80;;;1.10;;
38853;SDS011;24606;51.992;4.198;2024-03-29T20:22:14;2.33;;;0.93;;
38853;SDS011;24606;51.992;4.198;2024-03-29T20:27:16;6.60;;;1.20;;
38853;SDS011;24606;51.992;4.198;2024-03-29T20:32:19;3.40;;;0.93;;
38853;SDS011;24606;51.992;4.198;2024-03-29T20:42:24;3.25;;;1.15;;
38853;SDS011;24606;51.992;4.198;2024-03-29T20:47:26;3.30;;;1.35;;
38853;SDS011;24606;51.992;4.198;2024-03-29T20:52:30;3.25;;;1.17;;
38853;SDS011;24606;51.992;4.198;2024-03-29T20:57:33;7.50;;;1.13;;
38853;SDS011;24606;51.992;4.198;2024-03-29T21:02:36;5.43;;;1.20;;
38853;SDS011;24606;51.992;4.198;2024-03-29T21:07:56;4.95;;;1.83;;
38853;SDS011;24606;51.992;4.198;2024-03-29T21:12:58;4.38;;;2.17;;
38853;SDS011;24606;51.992;4.198;2024-03-29T21:18:01;3.90;;;2.10;;
38853;SDS011;24606;51.992;4.198;2024-03-29T21:23:05;7.60;;;1.42;;
38853;SDS011;24606;51.992;4.198;2024-03-29T21:28:07;2.38;;;1.30;;
38853;SDS011;24606;51.992;4.198;2024-03-29T21:33:10;3.17;;;1.23;;
38853;SDS011;24606;51.992;4.198;2024-03-29T21:38:14;2.53;;;1.30;;
38853;SDS011;24606;51.992;4.198;2024-03-29T21:43:16;4.60;;;1.70;;
38853;SDS011;24606;51.992;4.198;2024-03-29T21:48:18;4.55;;;1.42;;
38853;SDS011;24606;51.992;4.198;2024-03-29T21:53:21;5.22;;;1.85;;
38853;SDS011;24606;51.992;4.198;2024-03-29T21:58:23;7.53;;;1.25;;
38853;SDS011;24606;51.992;4.198;2024-03-29T22:03:25;5.75;;;1.58;;
38853;SDS011;24606;51.992;4.198;2024-03-29T22:08:29;1.50;;;1.20;;
38853;SDS011;24606;51.992;4.198;2024-03-29T22:13:33;6.13;;;1.40;;
38853;SDS011;24606;51.992;4.198;2024-03-29T22:18:36;3.97;;;1.95;;
38853;SDS011;24606;51.992;4.198;2024-03-29T22:23:39;5.72;;;1.83;;
38853;SDS011;24606;51.992;4.198;2024-03-29T22:28:44;4.72;;;1.95;;
38853;SDS011;24606;51.992;4.198;2024-03-29T22:33:46;3.55;;;1.90;;
38853;SDS011;24606;51.992;4.198;2024-03-29T22:38:50;8.75;;;1.80;;
38853;SDS011;24606;51.992;4.198;2024-03-29T22:43:52;4.75;;;2.20;;
38853;SDS011;24606;51.992;4.198;2024-03-29T22:48:57;5.63;;;1.95;;
38853;SDS011;24606;51.992;4.198;2024-03-29T22:54:08;6.30;;;2.33;;
38853;SDS011;24606;51.992;4.198;2024-03-29T22:59:10;3.47;;;2.10;;
38853;SDS011;24606;51.992;4.198;2024-03-29T23:04:13;6.78;;;1.92;;
38853;SDS011;24606;51.992;4.198;2024-03-29T23:09:17;3.72;;;1.65;;
38853;SDS011;24606;51.992;4.198;2024-03-29T23:14:20;2.83;;;1.60;;
38853;SDS011;24606;51.992;4.198;2024-03-29T23:19:24;2.88;;;1.63;;
38853;SDS011;24606;51.992;4.198;2024-03-29T23:24:29;4.90;;;1.20;;
38853;SDS011;24606;51.992;4.198;2024-03-29T23:29:34;1.25;;;0.90;;
38853;SDS011;24606;51.992;4.198;2024-03-29T23:34:37;7.35;;;3.47;;
38853;SDS011;24606;51.992;4.198;2024-03-29T23:44:43;2.25;;;0.90;;
38853;SDS011;24606;51.992;4.198;2024-03-29T23:49:45;1.95;;;0.80;;
38853;SDS011;24606;51.992;4.198;2024-03-29T23:54:59;1.35;;;0.88;;
